Time;durP1;ratioP1;P1;durP2;ratioP2;P2;SDS_P1;SDS_P2;PMS_P1;PMS_P2;Temp;Humidity;BMP_temperature;BMP_pressure;BME280_temperature;BME280_humidity;BME280_pressure;Samples;Min_cycle;Max_cycle;Signal;HPM_P1;HPM_P2
2023/04/28 00:01:46;;;;;;;6.00;3.45;;;;;;;;;;6219207;23;20008;-73
2023/04/28 00:04:12;;;;;;;7.93;4.30;;;;;;;;;;6245031;23;20008;-72
2023/04/28 00:06:37;;;;;;;6.88;4.22;;;;;;;;;;6245579;23;20004;-73
2023/04/28 00:09:02;;;;;;;7.80;4.55;;;;;;;;;;6243919;23;20053;-73
2023/04/28 00:11:28;;;;;;;10.88;4.20;;;;;;;;;;6244357;23;20086;-73
2023/04/28 00:13:53;;;;;;;8.10;4.03;;;;;;;;;;6245853;23;20000;-73
2023/04/28 00:16:18;;;;;;;7.40;4.10;;;;;;;;;;6245556;23;20011;-74
2023/04/28 00:18:44;;;;;;;9.40;4.75;;;;;;;;;;6218101;23;20007;-72
2023/04/28 00:21:09;;;;;;;7.38;4.43;;;;;;;;;;6244599;23;20333;-72
2023/04/28 00:23:35;;;;;;;7.38;4.25;;;;;;;;;;6244625;23;20004;-73
2023/04/28 00:26:00;;;;;;;6.82;4.47;;;;;;;;;;6217848;23;20089;-72
2023/04/28 00:28:25;;;;;;;7.30;4.00;;;;;;;;;;6218391;23;20011;-72
2023/04/28 00:30:51;;;;;;;10.50;4.35;;;;;;;;;;6217200;23;20492;-74
2023/04/28 00:33:16;;;;;;;7.18;4.25;;;;;;;;;;6245396;23;20003;-73
2023/04/28 00:35:41;;;;;;;8.77;4.45;;;;;;;;;;6244186;23;20004;-73
2023/04/28 00:38:07;;;;;;;8.77;4.50;;;;;;;;;;6243777;23;20011;-73
2023/04/28 00:40:33;;;;;;;8.00;4.32;;;;;;;;;;6217361;23;20000;-73
2023/04/28 00:42:58;;;;;;;9.07;4.53;;;;;;;;;;6243829;23;20000;-72
2023/04/28 00:45:24;;;;;;;9.15;5.18;;;;;;;;;;6243734;23;20445;-73
2023/04/28 00:47:49;;;;;;;7.72;4.50;;;;;;;;;;6218422;23;20422;-73
2023/04/28 00:50:15;;;;;;;8.27;4.32;;;;;;;;;;6245238;23;20004;-73
2023/04/28 00:52:42;;;;;;;8.25;4.25;;;;;;;;;;6243478;23;20080;-73
2023/04/28 00:55:08;;;;;;;8.48;4.47;;;;;;;;;;6245116;23;20004;-73
2023/04/28 00:57:34;;;;;;;7.15;4.38;;;;;;;;;;6216154;23;20004;-73
2023/04/28 00:59:59;;;;;;;6.97;4.18;;;;;;;;;;6244532;22;20000;-73
2023/04/28 01:02:25;;;;;;;7.60;4.53;;;;;;;;;;6242986;23;20027;-72
2023/04/28 01:04:53;;;;;;;10.85;4.50;;;;;;;;;;6216746;23;20007;-75
2023/04/28 01:07:18;;;;;;;7.95;4.60;;;;;;;;;;6217270;23;20006;-72
2023/04/28 01:09:45;;;;;;;6.97;4.10;;;;;;;;;;6217094;23;20032;-73
2023/04/28 01:12:10;;;;;;;9.30;4.28;;;;;;;;;;6241596;23;20427;-72
2023/04/28 01:14:35;;;;;;;8.52;4.75;;;;;;;;;;6244947;23;20084;-72
2023/04/28 01:17:01;;;;;;;7.88;4.80;;;;;;;;;;6217508;23;20103;-72
2023/04/28 01:19:27;;;;;;;9.50;4.72;;;;;;;;;;6216964;23;20004;-74
2023/04/28 01:21:52;;;;;;;8.70;4.53;;;;;;;;;;6244482;23;20075;-73
2023/04/28 01:24:17;;;;;;;9.15;4.40;;;;;;;;;;6243788;23;20004;-72
2023/04/28 01:26:44;;;;;;;7.47;4.28;;;;;;;;;;6217214;23;20000;-73
2023/04/28 01:29:09;;;;;;;9.20;4.53;;;;;;;;;;6217397;23;20514;-72
2023/04/28 01:31:34;;;;;;;7.20;4.30;;;;;;;;;;6218025;23;20031;-73
2023/04/28 01:34:00;;;;;;;8.55;4.38;;;;;;;;;;6243374;23;20004;-73
2023/04/28 01:36:26;;;;;;;7.53;4.30;;;;;;;;;;6243129;23;20012;-73
2023/04/28 01:38:51;;;;;;;6.60;4.35;;;;;;;;;;6218231;23;20011;-73
2023/04/28 01:41:17;;;;;;;7.25;4.13;;;;;;;;;;6244233;23;20003;-73
2023/04/28 01:43:42;;;;;;;7.43;4.40;;;;;;;;;;6244189;23;20014;-73
2023/04/28 01:46:08;;;;;;;9.25;4.97;;;;;;;;;;6245051;23;20080;-74
2023/04/28 01:48:34;;;;;;;9.70;4.78;;;;;;;;;;6244685;23;20034;-73
2023/04/28 01:50:59;;;;;;;7.57;4.63;;;;;;;;;;6216858;23;20445;-73
2023/04/28 01:53:24;;;;;;;8.55;4.72;;;;;;;;;;6241046;23;20338;-72
2023/04/28 01:55:50;;;;;;;8.60;4.60;;;;;;;;;;6242774;23;20000;-72
2023/04/28 01:58:15;;;;;;;10.88;5.28;;;;;;;;;;6244177;23;20008;-74
2023/04/28 02:00:41;;;;;;;9.48;5.03;;;;;;;;;;6216315;23;20378;-72
2023/04/28 02:03:06;;;;;;;7.82;4.00;;;;;;;;;;6244159;23;20000;-73
2023/04/28 02:05:31;;;;;;;7.05;3.92;;;;;;;;;;6241093;23;20473;-73
2023/04/28 02:07:57;;;;;;;10.43;5.30;;;;;;;;;;6241792;23;20003;-75
2023/04/28 02:10:22;;;;;;;9.43;4.72;;;;;;;;;;6215866;23;20020;-72
2023/04/28 02:12:47;;;;;;;8.32;4.88;;;;;;;;;;6244293;23;20342;-73
2023/04/28 02:15:13;;;;;;;9.20;4.70;;;;;;;;;;6217101;23;20035;-73
2023/04/28 02:17:38;;;;;;;9.10;4.78;;;;;;;;;;6218431;23;20004;-72
2023/04/28 02:20:05;;;;;;;8.80;4.95;;;;;;;;;;6216214;23;20368;-73
2023/04/28 02:22:30;;;;;;;9.18;4.57;;;;;;;;;;6216420;23;20024;-73
2023/04/28 02:24:56;;;;;;;7.53;4.35;;;;;;;;;;6218453;23;20015;-74
2023/04/28 02:27:21;;;;;;;8.55;4.35;;;;;;;;;;6218737;23;20394;-73
2023/04/28 02:29:47;;;;;;;9.18;5.00;;;;;;;;;;6246818;23;20004;-72
2023/04/28 02:32:12;;;;;;;8.00;4.80;;;;;;;;;;6219625;23;20008;-72
2023/04/28 02:34:38;;;;;;;7.97;4.63;;;;;;;;;;6246239;23;20432;-73
2023/04/28 02:37:03;;;;;;;9.20;4.70;;;;;;;;;;6247018;23;20004;-73
2023/04/28 02:39:30;;;;;;;9.32;5.10;;;;;;;;;;6218684;23;20003;-73
2023/04/28 02:41:55;;;;;;;8.65;5.38;;;;;;;;;;6244587;23;20030;-73
2023/04/28 02:44:21;;;;;;;8.55;5.00;;;;;;;;;;6218343;23;20000;-73
2023/04/28 02:46:46;;;;;;;9.13;4.85;;;;;;;;;;6244425;23;20001;-74
2023/04/28 02:49:12;;;;;;;11.43;5.38;;;;;;;;;;6245179;23;20419;-73
2023/04/28 02:51:38;;;;;;;10.68;4.93;;;;;;;;;;6244685;23;20011;-73
2023/04/28 02:54:03;;;;;;;7.32;4.85;;;;;;;;;;6245854;23;20326;-73
2023/04/28 02:56:29;;;;;;;7.88;4.93;;;;;;;;;;6218263;23;20004;-73
2023/04/28 02:58:55;;;;;;;8.02;4.63;;;;;;;;;;6219124;23;20019;-73
2023/04/28 03:01:21;;;;;;;9.85;5.65;;;;;;;;;;6244384;23;20434;-74
2023/04/28 03:03:46;;;;;;;7.45;4.72;;;;;;;;;;6219309;23;20008;-73
2023/04/28 03:06:11;;;;;;;9.32;5.65;;;;;;;;;;6219215;23;20008;-72
2023/04/28 03:08:37;;;;;;;10.02;5.38;;;;;;;;;;6246351;23;20419;-73
2023/04/28 03:11:02;;;;;;;10.52;5.47;;;;;;;;;;6245148;23;20004;-73
2023/04/28 03:13:28;;;;;;;9.68;5.38;;;;;;;;;;6245868;23;20097;-73
2023/04/28 03:15:54;;;;;;;8.73;5.20;;;;;;;;;;6245875;23;20004;-73
2023/04/28 03:18:21;;;;;;;8.00;5.18;;;;;;;;;;6245709;23;20000;-73
2023/04/28 03:20:47;;;;;;;8.18;4.90;;;;;;;;;;6245959;23;19996;-73
2023/04/28 03:23:12;;;;;;;8.32;5.13;;;;;;;;;;6219789;23;20035;-73
2023/04/28 03:25:37;;;;;;;8.38;5.20;;;;;;;;;;6246930;23;20004;-73
2023/04/28 03:28:03;;;;;;;9.77;6.20;;;;;;;;;;6218795;23;20062;-72
2023/04/28 03:30:28;;;;;;;9.40;5.43;;;;;;;;;;6246424;23;20442;-72
2023/04/28 03:32:53;;;;;;;8.73;5.15;;;;;;;;;;6246296;23;20004;-72
2023/04/28 03:35:19;;;;;;;9.60;5.30;;;;;;;;;;6218391;23;20004;-73
2023/04/28 03:37:44;;;;;;;10.18;5.97;;;;;;;;;;6219510;23;20008;-73
2023/04/28 03:40:10;;;;;;;9.73;5.95;;;;;;;;;;6219851;23;20389;-73
2023/04/28 03:42:35;;;;;;;10.43;6.10;;;;;;;;;;6218931;23;20004;-73
2023/04/28 03:45:01;;;;;;;8.68;5.45;;;;;;;;;;6219838;23;20027;-73
2023/04/28 03:47:27;;;;;;;10.15;5.72;;;;;;;;;;6245675;23;19999;-74
2023/04/28 03:49:52;;;;;;;12.13;6.55;;;;;;;;;;6244772;23;20012;-74
2023/04/28 03:52:18;;;;;;;9.63;6.05;;;;;;;;;;6245226;23;20058;-72
2023/04/28 03:54:43;;;;;;;10.38;6.05;;;;;;;;;;6244918;23;20008;-73
2023/04/28 03:57:08;;;;;;;12.05;6.10;;;;;;;;;;6245382;23;20000;-72
2023/04/28 03:59:34;;;;;;;11.27;5.82;;;;;;;;;;6219340;22;20004;-73
2023/04/28 04:01:59;;;;;;;9.98;6.28;;;;;;;;;;6245316;23;20007;-72
2023/04/28 04:04:25;;;;;;;9.48;6.18;;;;;;;;;;6246589;23;20000;-74
2023/04/28 04:06:51;;;;;;;10.85;6.20;;;;;;;;;;6245982;23;20099;-73
2023/04/28 04:09:16;;;;;;;9.95;6.13;;;;;;;;;;6244097;23;20000;-73
2023/04/28 04:11:41;;;;;;;12.55;6.22;;;;;;;;;;6245548;23;20004;-73
2023/04/28 04:14:07;;;;;;;10.63;6.70;;;;;;;;;;6194112;23;20027;-73
2023/04/28 04:16:32;;;;;;;9.20;6.05;;;;;;;;;;6245126;23;20004;-72
2023/04/28 04:18:57;;;;;;;11.00;6.43;;;;;;;;;;6244195;23;20000;-73
2023/04/28 04:21:23;;;;;;;10.93;5.95;;;;;;;;;;6244243;23;20004;-72
2023/04/28 04:23:48;;;;;;;9.02;5.72;;;;;;;;;;6244276;23;20015;-73
2023/04/28 04:26:13;;;;;;;12.77;6.97;;;;;;;;;;6218267;23;20014;-74
2023/04/28 04:28:39;;;;;;;13.05;7.35;;;;;;;;;;6245041;23;20422;-73
2023/04/28 04:31:05;;;;;;;10.93;6.47;;;;;;;;;;6246535;23;20007;-73
2023/04/28 04:33:30;;;;;;;10.20;6.30;;;;;;;;;;6245170;23;20013;-74
2023/04/28 04:35:56;;;;;;;10.18;6.40;;;;;;;;;;6193304;23;20008;-75
2023/04/28 04:38:21;;;;;;;10.32;6.32;;;;;;;;;;6217949;23;20015;-72
2023/04/28 04:40:46;;;;;;;12.15;7.15;;;;;;;;;;6219140;23;19996;-72
2023/04/28 04:43:12;;;;;;;12.32;7.47;;;;;;;;;;6242714;23;20004;-73
2023/04/28 04:45:38;;;;;;;11.82;7.22;;;;;;;;;;6244818;23;20331;-73
2023/04/28 04:48:03;;;;;;;12.50;7.32;;;;;;;;;;6243760;23;20075;-72
2023/04/28 04:50:29;;;;;;;11.57;7.40;;;;;;;;;;6243794;23;20058;-73
2023/04/28 04:52:56;;;;;;;13.77;7.55;;;;;;;;;;6243518;23;19996;-73
2023/04/28 04:55:21;;;;;;;11.38;6.82;;;;;;;;;;6216675;23;20000;-73
2023/04/28 04:57:47;;;;;;;12.27;7.65;;;;;;;;;;6217185;23;20007;-73
2023/04/28 05:00:12;;;;;;;12.88;7.25;;;;;;;;;;6242034;22;20007;-73
2023/04/28 05:02:38;;;;;;;14.40;7.85;;;;;;;;;;6242464;23;20007;-73
2023/04/28 05:05:04;;;;;;;11.82;6.88;;;;;;;;;;6243408;23;20006;-73
2023/04/28 05:07:30;;;;;;;15.57;7.82;;;;;;;;;;6215663;23;20038;-73
2023/04/28 05:09:55;;;;;;;12.50;8.00;;;;;;;;;;6215429;23;20004;-76
2023/04/28 05:12:21;;;;;;;11.70;7.78;;;;;;;;;;6242546;23;20000;-73
2023/04/28 05:14:46;;;;;;;13.13;7.75;;;;;;;;;;6243221;23;20331;-73
2023/04/28 05:17:11;;;;;;;13.70;8.05;;;;;;;;;;6215918;23;20011;-74
2023/04/28 05:19:37;;;;;;;13.80;7.93;;;;;;;;;;6215640;23;20000;-76
2023/04/28 05:22:02;;;;;;;12.93;8.02;;;;;;;;;;6215685;23;20004;-72
2023/04/28 05:24:27;;;;;;;14.45;8.30;;;;;;;;;;6242623;23;20004;-73
2023/04/28 05:26:53;;;;;;;12.40;8.07;;;;;;;;;;6242695;23;20008;-73
2023/04/28 05:29:19;;;;;;;13.52;8.48;;;;;;;;;;6240825;23;20004;-75
2023/04/28 05:31:45;;;;;;;13.07;7.93;;;;;;;;;;6240395;23;20099;-74
2023/04/28 05:34:10;;;;;;;11.98;7.97;;;;;;;;;;6216939;23;20023;-73
2023/04/28 05:36:36;;;;;;;15.13;8.27;;;;;;;;;;6242425;23;20095;-73
2023/04/28 05:39:01;;;;;;;12.30;8.10;;;;;;;;;;6240745;23;20054;-72
2023/04/28 05:41:27;;;;;;;15.52;9.07;;;;;;;;;;6217144;23;20003;-73
2023/04/28 05:43:52;;;;;;;13.38;8.63;;;;;;;;;;6242546;23;20304;-72
2023/04/28 05:46:17;;;;;;;12.85;8.05;;;;;;;;;;6215484;23;20008;-73
2023/04/28 05:48:43;;;;;;;13.40;9.13;;;;;;;;;;6242103;23;20011;-73
2023/04/28 05:51:08;;;;;;;12.02;8.63;;;;;;;;;;6214109;23;20015;-73
2023/04/28 05:53:33;;;;;;;13.02;8.80;;;;;;;;;;6217096;23;20008;-73
2023/04/28 05:55:59;;;;;;;11.85;8.27;;;;;;;;;;6215634;23;20000;-72
2023/04/28 05:58:24;;;;;;;11.70;8.13;;;;;;;;;;6218786;22;20032;-72
2023/04/28 06:00:50;;;;;;;12.80;8.35;;;;;;;;;;6246296;23;20000;-72
2023/04/28 06:03:17;;;;;;;13.88;8.23;;;;;;;;;;6220260;23;20427;-73
2023/04/28 06:05:43;;;;;;;13.10;8.73;;;;;;;;;;6246543;23;20004;-72
2023/04/28 06:08:09;;;;;;;13.90;8.98;;;;;;;;;;6247388;23;20015;-73
2023/04/28 06:10:34;;;;;;;14.85;8.82;;;;;;;;;;6245003;23;20008;-73
2023/04/28 06:13:00;;;;;;;16.90;9.27;;;;;;;;;;6219231;23;20004;-74
2023/04/28 06:15:25;;;;;;;13.18;9.45;;;;;;;;;;6220236;23;20426;-73
2023/04/28 06:17:51;;;;;;;13.60;8.93;;;;;;;;;;6217924;23;20000;-74
2023/04/28 06:20:17;;;;;;;13.10;9.02;;;;;;;;;;6244476;23;20023;-73
2023/04/28 06:22:42;;;;;;;17.42;8.95;;;;;;;;;;6217896;23;20004;-72
2023/04/28 06:25:08;;;;;;;16.02;9.32;;;;;;;;;;6243859;23;20071;-73
2023/04/28 06:27:33;;;;;;;13.68;9.27;;;;;;;;;;6246799;23;20061;-74
2023/04/28 06:29:59;;;;;;;15.30;9.48;;;;;;;;;;6218108;23;20062;-74
2023/04/28 06:32:24;;;;;;;16.13;8.88;;;;;;;;;;6246883;23;20011;-73
2023/04/28 06:34:49;;;;;;;14.43;8.48;;;;;;;;;;6220700;23;20012;-73
2023/04/28 06:37:15;;;;;;;15.45;9.85;;;;;;;;;;6194488;23;20139;-72
2023/04/28 06:39:40;;;;;;;15.25;9.35;;;;;;;;;;6247620;23;20007;-77
2023/04/28 06:42:06;;;;;;;13.15;9.50;;;;;;;;;;6219031;23;20004;-75
2023/04/28 06:44:31;;;;;;;14.30;9.20;;;;;;;;;;6245713;23;20065;-75
2023/04/28 06:46:56;;;;;;;16.30;10.00;;;;;;;;;;6223285;23;20338;-78
2023/04/28 06:49:22;;;;;;;14.88;9.82;;;;;;;;;;6248094;23;20012;-77
2023/04/28 06:51:47;;;;;;;15.43;9.60;;;;;;;;;;6249851;23;20339;-76
2023/04/28 06:54:12;;;;;;;12.88;8.70;;;;;;;;;;6248793;23;20330;-75
2023/04/28 06:56:38;;;;;;;16.75;9.73;;;;;;;;;;6247414;23;20015;-77
2023/04/28 06:59:03;;;;;;;13.95;9.40;;;;;;;;;;6250387;22;20008;-77
2023/04/28 07:01:28;;;;;;;12.65;8.98;;;;;;;;;;6248962;23;20011;-76
2023/04/28 07:03:54;;;;;;;15.77;8.93;;;;;;;;;;6223058;23;20006;-77
2023/04/28 07:06:19;;;;;;;16.65;8.95;;;;;;;;;;6251525;23;20000;-76
2023/04/28 07:08:45;;;;;;;14.00;8.75;;;;;;;;;;6249026;23;20107;-77
2023/04/28 07:11:10;;;;;;;13.48;8.85;;;;;;;;;;6221664;23;20016;-77
2023/04/28 07:13:36;;;;;;;11.85;8.07;;;;;;;;;;6248834;23;20397;-77
2023/04/28 07:16:01;;;;;;;13.52;8.48;;;;;;;;;;6224726;23;20012;-77
2023/04/28 07:18:27;;;;;;;14.05;9.05;;;;;;;;;;6250360;23;20035;-77
2023/04/28 07:20:52;;;;;;;13.32;9.05;;;;;;;;;;6223153;23;20011;-77
2023/04/28 07:23:18;;;;;;;14.38;9.38;;;;;;;;;;6249705;23;20032;-78
2023/04/28 07:25:43;;;;;;;12.13;9.10;;;;;;;;;;6250600;23;20332;-77
2023/04/28 07:28:09;;;;;;;13.57;9.57;;;;;;;;;;6220526;23;20087;-77
2023/04/28 07:30:34;;;;;;;13.43;8.98;;;;;;;;;;6248292;23;20023;-77
2023/04/28 07:33:01;;;;;;;11.77;8.38;;;;;;;;;;6249225;23;20004;-77
2023/04/28 07:35:27;;;;;;;14.10;8.95;;;;;;;;;;6249967;23;20106;-77
2023/04/28 07:37:53;;;;;;;13.73;8.73;;;;;;;;;;6249837;23;20012;-77
2023/04/28 07:40:19;;;;;;;11.95;8.70;;;;;;;;;;6249433;23;19996;-76
2023/04/28 07:42:44;;;;;;;13.30;8.27;;;;;;;;;;6250758;23;20426;-77
2023/04/28 07:45:10;;;;;;;13.82;8.57;;;;;;;;;;6249831;23;20766;-77
2023/04/28 07:47:36;;;;;;;13.05;8.23;;;;;;;;;;6250085;23;20004;-78
2023/04/28 07:50:05;;;;;;;13.15;9.10;;;;;;;;;;6222830;23;20004;-77
2023/04/28 07:52:31;;;;;;;13.75;8.32;;;;;;;;;;6250825;23;20075;-76
2023/04/28 07:54:57;;;;;;;12.57;8.45;;;;;;;;;;6250364;23;20004;-77
2023/04/28 07:57:23;;;;;;;12.02;8.60;;;;;;;;;;6250993;23;20085;-76
2023/04/28 07:59:49;;;;;;;12.15;8.70;;;;;;;;;;6249865;22;20271;-76
2023/04/28 08:02:14;;;;;;;11.45;8.98;;;;;;;;;;6251198;23;20338;-77
2023/04/28 08:04:40;;;;;;;14.52;8.80;;;;;;;;;;6224074;23;20008;-77
2023/04/28 08:07:05;;;;;;;13.80;9.32;;;;;;;;;;6222160;23;20000;-76
2023/04/28 08:09:31;;;;;;;14.68;9.40;;;;;;;;;;6224135;23;20500;-77
2023/04/28 08:11:58;;;;;;;15.98;10.00;;;;;;;;;;6247213;23;20449;-76
2023/04/28 08:14:24;;;;;;;14.85;9.90;;;;;;;;;;6247860;23;20442;-77
2023/04/28 08:16:49;;;;;;;14.45;10.00;;;;;;;;;;6248784;23;20008;-78
2023/04/28 08:19:15;;;;;;;12.43;8.82;;;;;;;;;;6219862;23;20004;-78
2023/04/28 08:21:40;;;;;;;11.18;8.45;;;;;;;;;;6249309;23;20028;-78
2023/04/28 08:24:07;;;;;;;12.48;9.52;;;;;;;;;;6220897;23;20443;-78
2023/04/28 08:26:32;;;;;;;13.05;10.18;;;;;;;;;;6250127;23;20058;-76
2023/04/28 08:28:58;;;;;;;15.18;10.35;;;;;;;;;;6223874;23;20423;-78
2023/04/28 08:31:23;;;;;;;14.98;9.73;;;;;;;;;;6249962;23;20004;-76
2023/04/28 08:33:50;;;;;;;14.07;9.80;;;;;;;;;;6221909;23;20004;-77
2023/04/28 08:36:16;;;;;;;14.25;9.73;;;;;;;;;;6250770;23;20050;-76
2023/04/28 08:38:43;;;;;;;11.18;8.95;;;;;;;;;;6221545;23;20007;-76
2023/04/28 08:41:08;;;;;;;12.07;9.88;;;;;;;;;;6247818;23;19996;-78
2023/04/28 08:43:35;;;;;;;13.13;10.13;;;;;;;;;;6249278;23;20004;-77
2023/04/28 08:46:05;;;;;;;13.60;9.77;;;;;;;;;;6238363;23;20063;-76
2023/04/28 08:48:46;;;;;;;15.60;9.93;;;;;;;;;;6246793;23;20091;-77
2023/04/28 08:51:23;;;;;;;13.77;10.23;;;;;;;;;;6246537;23;20008;-76
2023/04/28 08:53:52;;;;;;;12.85;10.13;;;;;;;;;;6221122;23;20027;-77
2023/04/28 08:56:18;;;;;;;15.05;11.07;;;;;;;;;;6247613;23;20004;-77
2023/04/28 08:58:44;;;;;;;13.43;10.75;;;;;;;;;;6247614;22;20391;-77
2023/04/28 09:01:09;;;;;;;15.23;11.10;;;;;;;;;;6247963;23;20035;-77
2023/04/28 09:03:35;;;;;;;15.10;10.73;;;;;;;;;;6248696;23;20028;-77
2023/04/28 09:06:01;;;;;;;15.43;10.43;;;;;;;;;;6248196;23;20008;-76
2023/04/28 09:08:27;;;;;;;13.27;10.73;;;;;;;;;;6247348;23;20017;-77
2023/04/28 09:11:09;;;;;;;28.83;12.23;;;;;;;;;;6223021;23;20008;-77
2023/04/28 09:13:35;;;;;;;17.05;11.10;;;;;;;;;;6250729;23;20000;-77
2023/04/28 09:16:02;;;;;;;14.77;10.82;;;;;;;;;;6222061;23;20012;-77
2023/04/28 09:18:29;;;;;;;16.75;11.05;;;;;;;;;;6251727;23;20419;-76
2023/04/28 09:21:03;;;;;;;13.55;10.50;;;;;;;;;;6223791;23;20010;-77
2023/04/28 09:23:28;;;;;;;12.52;9.70;;;;;;;;;;6223933;23;20004;-76
2023/04/28 09:26:06;;;;;;;13.68;9.52;;;;;;;;;;6249851;23;20053;-76
2023/04/28 09:28:32;;;;;;;13.23;8.98;;;;;;;;;;6249605;23;20075;-75
2023/04/28 09:30:58;;;;;;;13.52;9.30;;;;;;;;;;6223072;23;20020;-77
2023/04/28 09:33:23;;;;;;;13.27;9.20;;;;;;;;;;6222292;23;20012;-76
2023/04/28 09:35:49;;;;;;;13.40;8.85;;;;;;;;;;6250825;23;20004;-76
2023/04/28 09:38:15;;;;;;;12.02;9.18;;;;;;;;;;6251844;23;20020;-78
2023/04/28 09:40:53;;;;;;;12.15;8.65;;;;;;;;;;6249881;23;19996;-77
2023/04/28 09:43:32;;;;;;;11.52;9.02;;;;;;;;;;6250745;23;20308;-78
2023/04/28 09:45:59;;;;;;;13.05;9.00;;;;;;;;;;6252877;23;20000;-77
2023/04/28 09:48:30;;;;;;;13.05;9.52;;;;;;;;;;6224447;23;20431;-77
2023/04/28 09:50:58;;;;;;;12.65;9.35;;;;;;;;;;6249204;23;20027;-76
2023/04/28 09:53:24;;;;;;;14.63;10.18;;;;;;;;;;6248490;23;20008;-76
2023/04/28 09:55:51;;;;;;;12.68;9.40;;;;;;;;;;6248758;23;20347;-77
2023/04/28 09:58:20;;;;;;;13.07;9.48;;;;;;;;;;6221331;23;20078;-77
2023/04/28 10:00:58;;;;;;;14.63;9.57;;;;;;;;;;6247475;22;20004;-77
2023/04/28 10:03:29;;;;;;;14.18;9.65;;;;;;;;;;6246967;23;20000;-77
2023/04/28 10:05:57;;;;;;;13.27;9.88;;;;;;;;;;6223413;23;20040;-76
2023/04/28 10:08:23;;;;;;;12.85;9.30;;;;;;;;;;6251116;23;20008;-77
2023/04/28 10:10:53;;;;;;;13.38;8.80;;;;;;;;;;6219672;23;20051;-77
2023/04/28 10:13:20;;;;;;;11.35;8.57;;;;;;;;;;6247148;23;20023;-77
2023/04/28 10:15:45;;;;;;;13.43;8.60;;;;;;;;;;6248205;23;20335;-76
2023/04/28 10:18:15;;;;;;;11.85;9.30;;;;;;;;;;6248364;23;20339;-77
2023/04/28 10:20:47;;;;;;;11.52;8.85;;;;;;;;;;6248032;23;20385;-77
2023/04/28 10:23:31;;;;;;;12.43;9.38;;;;;;;;;;6247428;23;20032;-77
2023/04/28 10:25:58;;;;;;;13.80;9.88;;;;;;;;;;6248858;23;20534;-78
2023/04/28 10:28:25;;;;;;;15.25;9.88;;;;;;;;;;6222200;23;20004;-77
2023/04/28 10:31:09;;;;;;;14.43;9.65;;;;;;;;;;6248107;23;20008;-76
2023/04/28 10:33:36;;;;;;;16.63;11.10;;;;;;;;;;6219336;23;20087;-77
2023/04/28 10:36:03;;;;;;;16.48;10.63;;;;;;;;;;6229116;23;20039;-77
2023/04/28 10:38:28;;;;;;;14.40;10.15;;;;;;;;;;6238923;23;20015;-76
2023/04/28 10:40:53;;;;;;;14.05;9.75;;;;;;;;;;6212450;23;20008;-77
2023/04/28 10:43:27;;;;;;;15.07;10.35;;;;;;;;;;6237663;23;20004;-77
2023/04/28 10:45:56;;;;;;;14.63;10.05;;;;;;;;;;6215941;23;20443;-77
2023/04/28 10:48:21;;;;;;;14.48;9.40;;;;;;;;;;6243227;23;20008;-77
2023/04/28 10:51:05;;;;;;;14.02;9.30;;;;;;;;;;6244345;23;20008;-76
2023/04/28 10:53:43;;;;;;;15.63;10.50;;;;;;;;;;6214772;23;20447;-77
2023/04/28 10:56:09;;;;;;;15.77;10.63;;;;;;;;;;6242095;23;20011;-77
2023/04/28 10:58:38;;;;;;;14.40;10.13;;;;;;;;;;6244895;22;20093;-76
2023/04/28 11:01:19;;;;;;;15.77;10.48;;;;;;;;;;6239270;23;20437;-78
2023/04/28 11:06:34;;;;;;;16.05;10.32;;;;;;;;;;6236255;23;20421;-78
2023/04/28 11:09:13;;;;;;;15.52;9.95;;;;;;;;;;6207253;23;20577;-79
2023/04/28 11:11:39;;;;;;;14.30;9.45;;;;;;;;;;6232291;23;20008;-77
2023/04/28 11:14:17;;;;;;;13.38;9.02;;;;;;;;;;6234905;23;20012;-76
2023/04/28 11:16:55;;;;;;;12.98;8.75;;;;;;;;;;6233818;23;20012;-78
2023/04/28 11:19:26;;;;;;;13.52;8.85;;;;;;;;;;6234403;23;20320;-78
2023/04/28 11:21:53;;;;;;;14.45;9.50;;;;;;;;;;6236815;23;20008;-77
2023/04/28 11:24:19;;;;;;;13.57;9.27;;;;;;;;;;6206914;23;20396;-77
2023/04/28 11:26:44;;;;;;;13.57;9.65;;;;;;;;;;6231393;23;20459;-78
2023/04/28 11:29:11;;;;;;;15.00;9.40;;;;;;;;;;6234266;23;20015;-79
2023/04/28 11:31:37;;;;;;;15.73;9.50;;;;;;;;;;6235375;23;20442;-78
2023/04/28 11:34:13;;;;;;;14.75;9.70;;;;;;;;;;6237229;23;20008;-79
2023/04/28 11:36:39;;;;;;;13.02;8.57;;;;;;;;;;6235165;23;20043;-79
2023/04/28 11:39:09;;;;;;;14.95;9.50;;;;;;;;;;6235050;23;20003;-78
2023/04/28 11:41:36;;;;;;;13.93;9.60;;;;;;;;;;6207129;23;20054;-78
2023/04/28 11:44:11;;;;;;;13.20;9.07;;;;;;;;;;6233425;23;20034;-79
2023/04/28 11:46:50;;;;;;;14.38;9.88;;;;;;;;;;6233878;23;20004;-76
2023/04/28 11:49:17;;;;;;;14.68;9.30;;;;;;;;;;6233971;23;20008;-79
2023/04/28 11:51:45;;;;;;;12.93;9.05;;;;;;;;;;6235702;23;20004;-78
2023/04/28 11:54:13;;;;;;;13.50;8.02;;;;;;;;;;6235485;23;20015;-79
2023/04/28 11:56:40;;;;;;;11.80;7.93;;;;;;;;;;6232858;23;20363;-79
2023/04/28 11:59:07;;;;;;;11.60;7.57;;;;;;;;;;6230663;22;20012;-79
2023/04/28 12:01:47;;;;;;;11.32;7.22;;;;;;;;;;6207397;23;20069;-77
2023/04/28 12:04:13;;;;;;;10.05;7.22;;;;;;;;;;6235663;23;20083;-76
2023/04/28 12:06:39;;;;;;;14.18;7.53;;;;;;;;;;6208590;23;20414;-78
2023/04/28 12:09:20;;;;;;;12.80;7.65;;;;;;;;;;6234164;23;20078;-79
2023/04/28 12:11:56;;;;;;;10.95;7.18;;;;;;;;;;6207046;23;20549;-79
2023/04/28 12:14:22;;;;;;;10.43;7.32;;;;;;;;;;6209788;23;20434;-78
2023/04/28 12:16:48;;;;;;;10.82;7.10;;;;;;;;;;6234376;23;20420;-79
2023/04/28 12:19:14;;;;;;;9.18;6.18;;;;;;;;;;6234033;23;20011;-79
2023/04/28 12:21:41;;;;;;;8.30;5.18;;;;;;;;;;6235689;23;20004;-78
2023/04/28 12:24:18;;;;;;;6.75;4.00;;;;;;;;;;6234751;23;20585;-79
2023/04/28 12:26:43;;;;;;;6.00;4.10;;;;;;;;;;6234847;23;20038;-77
2023/04/28 12:29:09;;;;;;;5.78;3.50;;;;;;;;;;6233971;23;20087;-79
2023/04/28 12:31:53;;;;;;;5.43;3.67;;;;;;;;;;6208834;23;20016;-78
2023/04/28 12:34:18;;;;;;;4.68;3.22;;;;;;;;;;6207734;23;20004;-77
2023/04/28 12:36:45;;;;;;;5.13;3.30;;;;;;;;;;6234811;23;20012;-76
2023/04/28 12:39:15;;;;;;;5.60;3.50;;;;;;;;;;6209208;23;20003;-78
2023/04/28 12:41:41;;;;;;;4.22;2.78;;;;;;;;;;6235709;23;20000;-79
2023/04/28 12:44:06;;;;;;;4.97;3.20;;;;;;;;;;6236005;23;20004;-79
2023/04/28 12:46:32;;;;;;;5.28;3.08;;;;;;;;;;6235919;23;20095;-76
2023/04/28 12:48:57;;;;;;;5.22;3.30;;;;;;;;;;6237124;23;20008;-80
2023/04/28 12:51:23;;;;;;;6.13;3.53;;;;;;;;;;6235324;23;20079;-79
2023/04/28 12:53:48;;;;;;;5.32;3.35;;;;;;;;;;6234826;23;20138;-79
2023/04/28 12:56:13;;;;;;;5.50;3.55;;;;;;;;;;6236701;23;20031;-78
2023/04/28 12:58:39;;;;;;;6.32;3.75;;;;;;;;;;6235221;22;20008;-79
2023/04/28 13:01:05;;;;;;;8.65;4.20;;;;;;;;;;6204906;23;20000;-78
2023/04/28 13:03:30;;;;;;;6.60;4.60;;;;;;;;;;6231956;23;20057;-77
2023/04/28 13:05:56;;;;;;;7.45;4.88;;;;;;;;;;6206797;23;20062;-78
2023/04/28 13:08:21;;;;;;;7.13;4.80;;;;;;;;;;6232977;23;20004;-78
2023/04/28 13:10:46;;;;;;;8.63;5.50;;;;;;;;;;6208115;23;20004;-77
2023/04/28 13:13:12;;;;;;;8.25;5.38;;;;;;;;;;6232710;23;20401;-78
2023/04/28 13:15:38;;;;;;;8.77;5.35;;;;;;;;;;6207005;23;20004;-79
2023/04/28 13:18:03;;;;;;;8.13;5.68;;;;;;;;;;6235672;23;20489;-75
2023/04/28 13:20:28;;;;;;;10.30;6.75;;;;;;;;;;6236207;23;20008;-75
2023/04/28 13:22:54;;;;;;;9.50;5.63;;;;;;;;;;6235194;23;20006;-74
2023/04/28 13:25:20;;;;;;;8.15;5.50;;;;;;;;;;6207083;23;20019;-75
2023/04/28 13:27:46;;;;;;;10.77;5.40;;;;;;;;;;6206948;23;20441;-76
2023/04/28 13:30:12;;;;;;;7.28;5.05;;;;;;;;;;6232238;23;20032;-76
2023/04/28 13:32:38;;;;;;;7.15;4.75;;;;;;;;;;6208193;23;20007;-76
2023/04/28 13:35:03;;;;;;;10.32;5.10;;;;;;;;;;6207135;23;20008;-76
2023/04/28 13:37:29;;;;;;;7.90;5.38;;;;;;;;;;6209016;23;20012;-76
2023/04/28 13:39:54;;;;;;;9.85;5.28;;;;;;;;;;6207816;23;20087;-75
2023/04/28 13:42:20;;;;;;;6.20;4.30;;;;;;;;;;6205556;23;20015;-76
2023/04/28 13:44:47;;;;;;;7.80;4.40;;;;;;;;;;6235104;23;20012;-75
2023/04/28 13:47:13;;;;;;;5.95;4.10;;;;;;;;;;6207395;23;20443;-75
2023/04/28 13:49:38;;;;;;;7.32;5.20;;;;;;;;;;6235195;23;20011;-76
2023/04/28 13:52:04;;;;;;;6.20;3.95;;;;;;;;;;6234146;23;20552;-76
2023/04/28 13:54:30;;;;;;;6.10;3.90;;;;;;;;;;6236872;23;20069;-75
2023/04/28 13:56:55;;;;;;;4.78;3.28;;;;;;;;;;6208794;23;20034;-75
2023/04/28 13:59:21;;;;;;;4.97;3.28;;;;;;;;;;6235076;22;20416;-75
2023/04/28 14:01:46;;;;;;;4.95;3.40;;;;;;;;;;6208053;23;20090;-76
2023/04/28 14:04:12;;;;;;;5.05;3.33;;;;;;;;;;6234692;23;20012;-76
2023/04/28 14:06:37;;;;;;;8.15;3.80;;;;;;;;;;6233529;23;20004;-76
2023/04/28 14:09:02;;;;;;;5.82;3.70;;;;;;;;;;6207556;23;20046;-77
2023/04/28 14:11:28;;;;;;;5.43;4.22;;;;;;;;;;6235135;23;20011;-75
2023/04/28 14:13:53;;;;;;;5.55;3.83;;;;;;;;;;6234099;23;20003;-76
2023/04/28 14:16:19;;;;;;;5.57;3.83;;;;;;;;;;6207902;23;20008;-76
2023/04/28 14:18:44;;;;;;;6.25;4.28;;;;;;;;;;6237089;23;20446;-75
2023/04/28 14:21:10;;;;;;;7.40;4.90;;;;;;;;;;6237013;23;20007;-75
2023/04/28 14:23:36;;;;;;;7.18;4.63;;;;;;;;;;6235464;23;20008;-76
2023/04/28 14:26:02;;;;;;;6.80;4.70;;;;;;;;;;6211552;23;20027;-77
2023/04/28 14:28:27;;;;;;;8.32;4.72;;;;;;;;;;6209318;23;20043;-75
2023/04/28 14:30:53;;;;;;;8.18;4.15;;;;;;;;;;6236600;23;20016;-75
2023/04/28 14:33:18;;;;;;;5.40;3.90;;;;;;;;;;6193750;23;20439;-75